sensor_id;sensor_type;location;lat;lon;timestamp;pressure;altitude;pressure_sealevel;temperature;humidity
6224;BME280;3145;42.726;23.342;2023-06-14T00:02:22;71533.66;;;-142.70;99.32
6224;BME280;3145;42.726;23.342;2023-06-14T00:04:48;71529.63;;;-142.70;99.08
6224;BME280;3145;42.726;23.342;2023-06-14T00:07:16;71527.59;;;-142.70;98.81
6224;BME280;3145;42.726;23.342;2023-06-14T00:09:43;71521.56;;;-142.70;98.33
6224;BME280;3145;42.726;23.342;2023-06-14T00:12:10;71525.59;;;-142.70;97.79
6224;BME280;3145;42.726;23.342;2023-06-14T00:14:37;71519.53;;;-142.70;97.10
6224;BME280;3145;42.726;23.342;2023-06-14T00:17:05;71517.53;;;-142.70;96.81
6224;BME280;3145;42.726;23.342;2023-06-14T00:19:32;71521.56;;;-142.70;96.82
6224;BME280;3145;42.726;23.342;2023-06-14T00:22:01;71527.59;;;-142.70;96.85
6224;BME280;3145;42.726;23.342;2023-06-14T00:24:28;71517.53;;;-142.70;97.01
6224;BME280;3145;42.726;23.342;2023-06-14T00:26:55;71513.50;;;-142.70;97.22
6224;BME280;3145;42.726;23.342;2023-06-14T00:29:21;71517.53;;;-142.70;97.46
6224;BME280;3145;42.726;23.342;2023-06-14T00:31:48;71513.50;;;-142.70;97.55
6224;BME280;3145;42.726;23.342;2023-06-14T00:34:16;71509.47;;;-142.70;97.51
6224;BME280;3145;42.726;23.342;2023-06-14T00:36:43;71497.41;;;-142.70;97.38
6224;BME280;3145;42.726;23.342;2023-06-14T00:39:09;71505.44;;;-142.70;96.94
6224;BME280;3145;42.726;23.342;2023-06-14T00:41:37;71503.44;;;-142.70;96.81
6224;BME280;3145;42.726;23.342;2023-06-14T00:44:04;71503.44;;;-142.70;96.63
6224;BME280;3145;42.726;23.342;2023-06-14T00:46:31;71493.38;;;-142.70;96.69
6224;BME280;3145;42.726;23.342;2023-06-14T00:48:58;71497.41;;;-142.70;96.63
6224;BME280;3145;42.726;23.342;2023-06-14T00:51:28;71495.38;;;-142.70;96.43
6224;BME280;3145;42.726;23.342;2023-06-14T00:53:55;71503.44;;;-142.70;96.40
6224;BME280;3145;42.726;23.342;2023-06-14T00:56:21;71505.44;;;-142.70;96.43
6224;BME280;3145;42.726;23.342;2023-06-14T00:58:49;71505.44;;;-142.70;96.40
6224;BME280;3145;42.726;23.342;2023-06-14T01:01:16;71503.44;;;-142.70;96.38
6224;BME280;3145;42.726;23.342;2023-06-14T01:03:43;71509.47;;;-142.70;96.11
6224;BME280;3145;42.726;23.342;2023-06-14T01:06:17;71509.47;;;-142.70;95.80
6224;BME280;3145;42.726;23.342;2023-06-14T01:09:01;71521.56;;;-142.70;95.92
6224;BME280;3145;42.726;23.342;2023-06-14T01:11:32;71519.53;;;-142.70;96.07
6224;BME280;3145;42.726;23.342;2023-06-14T01:14:01;71517.53;;;-142.70;96.18
6224;BME280;3145;42.726;23.342;2023-06-14T01:16:29;71515.53;;;-142.70;96.36
6224;BME280;3145;42.726;23.342;2023-06-14T01:18:58;71517.53;;;-142.70;96.42
6224;BME280;3145;42.726;23.342;2023-06-14T01:21:25;71513.50;;;-142.70;96.43
6224;BME280;3145;42.726;23.342;2023-06-14T01:23:55;71513.50;;;-142.70;96.13
6224;BME280;3145;42.726;23.342;2023-06-14T01:26:22;71517.53;;;-142.70;96.03
6224;BME280;3145;42.726;23.342;2023-06-14T01:28:49;71511.50;;;-142.70;96.08
6224;BME280;3145;42.726;23.342;2023-06-14T01:31:19;71505.44;;;-142.70;96.23
6224;BME280;3145;42.726;23.342;2023-06-14T01:33:48;71515.53;;;-142.70;96.09
6224;BME280;3145;42.726;23.342;2023-06-14T01:36:15;71505.44;;;-142.70;95.79
6224;BME280;3145;42.726;23.342;2023-06-14T01:38:43;71507.47;;;-142.70;95.40
6224;BME280;3145;42.726;23.342;2023-06-14T01:41:12;71513.50;;;-142.70;94.65
6224;BME280;3145;42.726;23.342;2023-06-14T01:43:40;71515.53;;;-142.70;93.42
6224;BME280;3145;42.726;23.342;2023-06-14T01:46:08;71527.59;;;-142.70;93.90
6224;BME280;3145;42.726;23.342;2023-06-14T01:48:36;71525.59;;;-142.70;94.66
6224;BME280;3145;42.726;23.342;2023-06-14T01:51:02;71523.56;;;-142.70;95.54
6224;BME280;3145;42.726;23.342;2023-06-14T01:53:29;71521.56;;;-142.70;96.22
6224;BME280;3145;42.726;23.342;2023-06-14T01:55:56;71521.56;;;-142.70;96.38
6224;BME280;3145;42.726;23.342;2023-06-14T01:58:24;71525.59;;;-142.70;96.57
6224;BME280;3145;42.726;23.342;2023-06-14T02:00:51;71529.63;;;-142.70;96.72
6224;BME280;3145;42.726;23.342;2023-06-14T02:03:20;71523.56;;;-142.70;96.73
6224;BME280;3145;42.726;23.342;2023-06-14T02:05:48;71533.66;;;-142.70;96.56
6224;BME280;3145;42.726;23.342;2023-06-14T02:08:15;71537.66;;;-142.70;96.37
6224;BME280;3145;42.726;23.342;2023-06-14T02:10:42;71533.66;;;-142.70;96.18
6224;BME280;3145;42.726;23.342;2023-06-14T02:13:08;71547.75;;;-142.70;96.21
6224;BME280;3145;42.726;23.342;2023-06-14T02:15:36;71551.78;;;-142.70;96.18
6224;BME280;3145;42.726;23.342;2023-06-14T02:18:03;71557.81;;;-142.70;96.05
6224;BME280;3145;42.726;23.342;2023-06-14T02:20:30;71557.81;;;-142.70;96.06
6224;BME280;3145;42.726;23.342;2023-06-14T02:22:57;71555.81;;;-142.70;96.21
6224;BME280;3145;42.726;23.342;2023-06-14T02:25:24;71551.78;;;-142.70;95.93
6224;BME280;3145;42.726;23.342;2023-06-14T02:27:53;71555.81;;;-142.70;95.78
6224;BME280;3145;42.726;23.342;2023-06-14T02:30:20;71565.88;;;-142.70;95.45
6224;BME280;3145;42.726;23.342;2023-06-14T02:32:48;71571.91;;;-142.70;95.25
6224;BME280;3145;42.726;23.342;2023-06-14T02:35:16;71581.97;;;-142.70;95.53
6224;BME280;3145;42.726;23.342;2023-06-14T02:37:43;71579.97;;;-142.70;95.64
6224;BME280;3145;42.726;23.342;2023-06-14T02:40:10;71577.94;;;-142.70;95.69
6224;BME280;3145;42.726;23.342;2023-06-14T02:42:37;71581.97;;;-142.70;95.87
6224;BME280;3145;42.726;23.342;2023-06-14T02:45:04;71590.03;;;-142.70;96.16
6224;BME280;3145;42.726;23.342;2023-06-14T02:47:31;71586.00;;;-142.70;96.21
6224;BME280;3145;42.726;23.342;2023-06-14T02:49:59;71579.97;;;-142.70;96.38
6224;BME280;3145;42.726;23.342;2023-06-14T02:52:26;71590.03;;;-142.70;96.20
6224;BME280;3145;42.726;23.342;2023-06-14T02:54:52;71584.00;;;-142.70;96.30
6224;BME280;3145;42.726;23.342;2023-06-14T02:57:19;71590.03;;;-142.70;96.66
6224;BME280;3145;42.726;23.342;2023-06-14T02:59:46;71594.06;;;-142.70;96.61
6224;BME280;3145;42.726;23.342;2023-06-14T03:02:13;71596.06;;;-142.70;96.73
6224;BME280;3145;42.726;23.342;2023-06-14T03:04:39;71592.06;;;-142.70;96.71
6224;BME280;3145;42.726;23.342;2023-06-14T03:07:10;71596.06;;;-142.70;96.18
6224;BME280;3145;42.726;23.342;2023-06-14T03:09:38;71598.09;;;-142.70;95.95
6224;BME280;3145;42.726;23.342;2023-06-14T03:12:06;71592.06;;;-142.70;96.03
6224;BME280;3145;42.726;23.342;2023-06-14T03:14:34;71598.09;;;-142.70;95.99
6224;BME280;3145;42.726;23.342;2023-06-14T03:17:01;71596.06;;;-142.70;95.98
6224;BME280;3145;42.726;23.342;2023-06-14T03:19:30;71594.06;;;-142.70;95.84
6224;BME280;3145;42.726;23.342;2023-06-14T03:21:56;71604.13;;;-142.70;95.63
6224;BME280;3145;42.726;23.342;2023-06-14T03:24:25;71606.16;;;-142.70;95.42
6224;BME280;3145;42.726;23.342;2023-06-14T03:26:52;71598.09;;;-142.70;95.33
6224;BME280;3145;42.726;23.342;2023-06-14T03:29:19;71594.06;;;-142.70;95.08
6224;BME280;3145;42.726;23.342;2023-06-14T03:31:57;71577.94;;;-142.70;94.92
6224;BME280;3145;42.726;23.342;2023-06-14T03:34:24;71577.94;;;-142.70;94.72
6224;BME280;3145;42.726;23.342;2023-06-14T03:36:51;71573.94;;;-142.70;95.00
6224;BME280;3145;42.726;23.342;2023-06-14T03:39:17;71567.88;;;-142.70;94.47
6224;BME280;3145;42.726;23.342;2023-06-14T03:41:46;71567.88;;;-142.70;94.49
6224;BME280;3145;42.726;23.342;2023-06-14T03:44:15;71565.88;;;-142.70;94.41
6224;BME280;3145;42.726;23.342;2023-06-14T03:46:42;71555.81;;;-142.70;94.45
6224;BME280;3145;42.726;23.342;2023-06-14T03:49:08;71557.81;;;-142.70;94.04
6224;BME280;3145;42.726;23.342;2023-06-14T03:51:36;71553.78;;;-142.70;93.79
6224;BME280;3145;42.726;23.342;2023-06-14T03:54:02;71549.75;;;-142.70;94.01
6224;BME280;3145;42.726;23.342;2023-06-14T03:56:29;71547.75;;;-142.70;94.19
6224;BME280;3145;42.726;23.342;2023-06-14T03:58:57;71543.72;;;-142.70;94.33
6224;BME280;3145;42.726;23.342;2023-06-14T04:01:24;71537.66;;;-142.70;94.45
6224;BME280;3145;42.726;23.342;2023-06-14T04:03:55;71529.63;;;-142.70;93.97
6224;BME280;3145;42.726;23.342;2023-06-14T04:06:23;71533.66;;;-142.70;93.65
6224;BME280;3145;42.726;23.342;2023-06-14T04:08:58;71529.63;;;-142.70;93.77
6224;BME280;3145;42.726;23.342;2023-06-14T04:11:28;71527.59;;;-142.70;93.54
6224;BME280;3145;42.726;23.342;2023-06-14T04:13:55;71525.59;;;-142.70;93.47
6224;BME280;3145;42.726;23.342;2023-06-14T04:16:24;71521.56;;;-142.70;93.36
6224;BME280;3145;42.726;23.342;2023-06-14T04:18:50;71533.66;;;-142.70;93.38
6224;BME280;3145;42.726;23.342;2023-06-14T04:21:17;71525.59;;;-142.70;93.10
6224;BME280;3145;42.726;23.342;2023-06-14T04:23:44;71525.59;;;-142.70;92.55
6224;BME280;3145;42.726;23.342;2023-06-14T04:26:11;71521.56;;;-142.70;92.05
6224;BME280;3145;42.726;23.342;2023-06-14T04:28:38;71513.50;;;-142.70;92.89
6224;BME280;3145;42.726;23.342;2023-06-14T04:31:06;71497.41;;;-142.70;93.29
6224;BME280;3145;42.726;23.342;2023-06-14T04:33:35;71473.22;;;-142.70;92.10
6224;BME280;3145;42.726;23.342;2023-06-14T04:36:09;71457.13;;;-142.70;91.62
6224;BME280;3145;42.726;23.342;2023-06-14T04:38:37;71441.00;;;-142.70;91.00
6224;BME280;3145;42.726;23.342;2023-06-14T04:41:03;71408.78;;;-142.70;90.50
6224;BME280;3145;42.726;23.342;2023-06-14T04:43:31;71398.72;;;-142.70;88.85
6224;BME280;3145;42.726;23.342;2023-06-14T04:46:03;71400.72;;;-142.70;87.26
6224;BME280;3145;42.726;23.342;2023-06-14T04:48:30;71384.63;;;-142.70;87.42
6224;BME280;3145;42.726;23.342;2023-06-14T04:50:59;71336.28;;;-142.70;88.12
6224;BME280;3145;42.726;23.342;2023-06-14T04:53:26;71296.00;;;-142.70;86.04
6224;BME280;3145;42.726;23.342;2023-06-14T04:55:54;71275.88;;;-142.70;84.10
6224;BME280;3145;42.726;23.342;2023-06-14T04:58:21;71259.75;;;-142.70;82.02
6224;BME280;3145;42.726;23.342;2023-06-14T05:00:47;71271.84;;;-142.70;79.63
6224;BME280;3145;42.726;23.342;2023-06-14T05:03:14;71281.91;;;-142.70;78.63
6224;BME280;3145;42.726;23.342;2023-06-14T05:05:41;71287.97;;;-142.70;79.71
6224;BME280;3145;42.726;23.342;2023-06-14T05:08:09;71287.97;;;-142.70;79.63
6224;BME280;3145;42.726;23.342;2023-06-14T05:10:36;71291.97;;;-142.70;79.52
6224;BME280;3145;42.726;23.342;2023-06-14T05:13:02;71304.06;;;-142.70;79.19
6224;BME280;3145;42.726;23.342;2023-06-14T05:15:29;71328.22;;;-142.70;78.53
6224;BME280;3145;42.726;23.342;2023-06-14T05:17:56;71324.19;;;-142.70;79.24
6224;BME280;3145;42.726;23.342;2023-06-14T05:20:23;71320.19;;;-142.70;80.01
6224;BME280;3145;42.726;23.342;2023-06-14T05:22:52;71312.13;;;-142.70;81.30
6224;BME280;3145;42.726;23.342;2023-06-14T05:25:20;71320.19;;;-142.70;80.65
6224;BME280;3145;42.726;23.342;2023-06-14T05:27:47;71332.25;;;-142.70;80.64
6224;BME280;3145;42.726;23.342;2023-06-14T05:30:14;71328.22;;;-142.70;81.00
6224;BME280;3145;42.726;23.342;2023-06-14T05:32:41;71328.22;;;-142.70;80.25
6224;BME280;3145;42.726;23.342;2023-06-14T05:35:08;71332.25;;;-142.70;79.33
6224;BME280;3145;42.726;23.342;2023-06-14T05:37:35;71336.28;;;-142.70;79.73
6224;BME280;3145;42.726;23.342;2023-06-14T05:40:03;71328.22;;;-142.70;80.37
6224;BME280;3145;42.726;23.342;2023-06-14T05:42:32;71328.22;;;-142.70;80.13
6224;BME280;3145;42.726;23.342;2023-06-14T05:44:59;71344.34;;;-142.70;80.47
6224;BME280;3145;42.726;23.342;2023-06-14T05:47:26;71336.28;;;-142.70;80.49
6224;BME280;3145;42.726;23.342;2023-06-14T05:49:53;71334.28;;;-142.70;80.06
6224;BME280;3145;42.726;23.342;2023-06-14T05:52:20;71340.31;;;-142.70;79.87
6224;BME280;3145;42.726;23.342;2023-06-14T05:54:47;71344.34;;;-142.70;81.71
6224;BME280;3145;42.726;23.342;2023-06-14T05:57:14;71332.25;;;-142.70;81.52
6224;BME280;3145;42.726;23.342;2023-06-14T05:59:42;71332.25;;;-142.70;81.33
6224;BME280;3145;42.726;23.342;2023-06-14T06:02:09;71340.31;;;-142.70;80.44
6224;BME280;3145;42.726;23.342;2023-06-14T06:04:36;71332.25;;;-142.70;81.21
6224;BME280;3145;42.726;23.342;2023-06-14T06:07:02;71322.19;;;-142.70;81.08
6224;BME280;3145;42.726;23.342;2023-06-14T06:09:30;71324.19;;;-142.70;80.84
6224;BME280;3145;42.726;23.342;2023-06-14T06:11:57;71318.16;;;-142.70;80.50
6224;BME280;3145;42.726;23.342;2023-06-14T06:14:24;71312.13;;;-142.70;80.30
6224;BME280;3145;42.726;23.342;2023-06-14T06:16:53;71304.06;;;-142.70;80.14
6224;BME280;3145;42.726;23.342;2023-06-14T06:19:20;71302.06;;;-142.70;79.18
6224;BME280;3145;42.726;23.342;2023-06-14T06:21:46;71291.97;;;-142.70;78.78
6224;BME280;3145;42.726;23.342;2023-06-14T06:24:13;71291.97;;;-142.70;78.29
6224;BME280;3145;42.726;23.342;2023-06-14T06:26:40;71287.97;;;-142.70;78.16
6224;BME280;3145;42.726;23.342;2023-06-14T06:29:07;71283.94;;;-142.70;78.10
6224;BME280;3145;42.726;23.342;2023-06-14T06:31:33;71287.97;;;-142.70;78.30
6224;BME280;3145;42.726;23.342;2023-06-14T06:34:02;71287.97;;;-142.70;78.65
6224;BME280;3145;42.726;23.342;2023-06-14T06:36:29;71279.91;;;-142.70;77.90
6224;BME280;3145;42.726;23.342;2023-06-14T06:38:55;71279.91;;;-142.70;77.35
6224;BME280;3145;42.726;23.342;2023-06-14T06:41:22;71269.84;;;-142.70;77.16
6224;BME280;3145;42.726;23.342;2023-06-14T06:43:49;71271.84;;;-142.70;76.79
6224;BME280;3145;42.726;23.342;2023-06-14T06:46:15;71267.81;;;-142.70;75.89
6224;BME280;3145;42.726;23.342;2023-06-14T06:48:43;71263.78;;;-142.70;76.73
6224;BME280;3145;42.726;23.342;2023-06-14T06:51:11;71263.78;;;-142.70;76.93
6224;BME280;3145;42.726;23.342;2023-06-14T06:53:39;71251.72;;;-142.70;76.71
6224;BME280;3145;42.726;23.342;2023-06-14T06:56:05;71241.63;;;-142.70;77.02
6224;BME280;3145;42.726;23.342;2023-06-14T06:58:32;71237.63;;;-142.70;75.99
6224;BME280;3145;42.726;23.342;2023-06-14T07:00:59;71229.56;;;-142.70;75.70
6224;BME280;3145;42.726;23.342;2023-06-14T07:03:25;71219.50;;;-142.70;75.01
6224;BME280;3145;42.726;23.342;2023-06-14T07:05:52;71259.75;;;-142.70;74.15
6224;BME280;3145;42.726;23.342;2023-06-14T07:08:20;71287.97;;;-142.70;73.44
6224;BME280;3145;42.726;23.342;2023-06-14T07:10:47;71291.97;;;-142.70;75.64
6224;BME280;3145;42.726;23.342;2023-06-14T07:13:13;71279.91;;;-142.70;74.58
6224;BME280;3145;42.726;23.342;2023-06-14T07:15:40;71239.63;;;-142.70;72.79
6224;BME280;3145;42.726;23.342;2023-06-14T07:18:07;71239.63;;;-142.70;69.87
6224;BME280;3145;42.726;23.342;2023-06-14T07:20:34;71171.16;;;-142.70;69.02
6224;BME280;3145;42.726;23.342;2023-06-14T07:23:03;71102.69;;;-142.70;69.48
6224;BME280;3145;42.726;23.342;2023-06-14T07:25:32;71098.66;;;-142.70;67.13
6224;BME280;3145;42.726;23.342;2023-06-14T07:27:58;71092.63;;;-142.70;64.63
6224;BME280;3145;42.726;23.342;2023-06-14T07:30:25;71064.44;;;-142.70;64.78
6224;BME280;3145;42.726;23.342;2023-06-14T07:32:52;71062.41;;;-142.70;62.04
6224;BME280;3145;42.726;23.342;2023-06-14T07:35:19;71090.63;;;-142.70;61.31
6224;BME280;3145;42.726;23.342;2023-06-14T07:37:46;71058.41;;;-142.70;59.57
6224;BME280;3145;42.726;23.342;2023-06-14T07:40:13;71038.25;;;-142.70;59.77
6224;BME280;3145;42.726;23.342;2023-06-14T07:42:41;71030.19;;;-142.70;60.03
6224;BME280;3145;42.726;23.342;2023-06-14T07:45:09;71084.56;;;-142.70;60.48
6224;BME280;3145;42.726;23.342;2023-06-14T07:47:35;71058.41;;;-142.70;61.21
6224;BME280;3145;42.726;23.342;2023-06-14T07:50:02;71074.50;;;-142.70;57.61
6224;BME280;3145;42.726;23.342;2023-06-14T07:52:29;71048.31;;;-142.70;56.10
6224;BME280;3145;42.726;23.342;2023-06-14T07:54:56;71006.03;;;-142.70;58.38
6224;BME280;3145;42.726;23.342;2023-06-14T07:57:23;70997.97;;;-142.70;57.19
6224;BME280;3145;42.726;23.342;2023-06-14T07:59:51;71002.00;;;-142.70;58.07
6224;BME280;3145;42.726;23.342;2023-06-14T08:02:18;70985.91;;;-142.70;58.92
6224;BME280;3145;42.726;23.342;2023-06-14T08:04:45;70947.66;;;-142.70;57.17
6224;BME280;3145;42.726;23.342;2023-06-14T08:07:12;70901.34;;;-142.70;56.93
6224;BME280;3145;42.726;23.342;2023-06-14T08:09:39;70857.03;;;-142.70;54.25
6224;BME280;3145;42.726;23.342;2023-06-14T08:12:06;70877.16;;;-142.70;53.43
6224;BME280;3145;42.726;23.342;2023-06-14T08:14:35;70913.41;;;-142.70;51.72
6224;BME280;3145;42.726;23.342;2023-06-14T08:17:03;70877.16;;;-142.70;52.78
6224;BME280;3145;42.726;23.342;2023-06-14T08:19:30;70851.00;;;-142.70;52.50
6224;BME280;3145;42.726;23.342;2023-06-14T08:21:57;70826.84;;;-142.70;53.12
6224;BME280;3145;42.726;23.342;2023-06-14T08:24:24;70818.78;;;-142.70;53.38
6224;BME280;3145;42.726;23.342;2023-06-14T08:26:52;70816.75;;;-142.70;50.94
6224;BME280;3145;42.726;23.342;2023-06-14T08:29:19;70800.66;;;-142.70;51.75
6224;BME280;3145;42.726;23.342;2023-06-14T08:31:46;70744.28;;;-142.70;53.33
6224;BME280;3145;42.726;23.342;2023-06-14T08:34:14;70724.16;;;-142.70;48.50
6224;BME280;3145;42.726;23.342;2023-06-14T08:36:41;70720.13;;;-142.70;49.28
6224;BME280;3145;42.726;23.342;2023-06-14T08:39:08;70730.19;;;-142.70;47.07
6224;BME280;3145;42.726;23.342;2023-06-14T08:41:35;70736.22;;;-142.70;46.59
6224;BME280;3145;42.726;23.342;2023-06-14T08:44:02;70712.06;;;-142.70;48.61
6224;BME280;3145;42.726;23.342;2023-06-14T08:46:32;70687.91;;;-142.70;45.50
6224;BME280;3145;42.726;23.342;2023-06-14T08:48:59;70714.06;;;-142.70;44.56
6224;BME280;3145;42.726;23.342;2023-06-14T08:51:30;70851.00;;;-142.70;47.01
6224;BME280;3145;42.726;23.342;2023-06-14T08:54:00;70818.78;;;-142.70;46.71
6224;BME280;3145;42.726;23.342;2023-06-14T08:56:27;70796.63;;;-142.70;46.20
6224;BME280;3145;42.726;23.342;2023-06-14T08:58:55;70784.56;;;-142.70;48.53
6224;BME280;3145;42.726;23.342;2023-06-14T09:01:22;70718.09;;;-142.70;47.72
6224;BME280;3145;42.726;23.342;2023-06-14T09:03:50;70699.97;;;-142.70;47.82
6224;BME280;3145;42.726;23.342;2023-06-14T09:06:17;70675.81;;;-142.70;46.02
6224;BME280;3145;42.726;23.342;2023-06-14T09:08:46;70706.03;;;-142.70;45.15
6224;BME280;3145;42.726;23.342;2023-06-14T09:11:14;70792.59;;;-142.70;45.30
6224;BME280;3145;42.726;23.342;2023-06-14T09:13:41;70788.56;;;-142.70;47.11
6224;BME280;3145;42.726;23.342;2023-06-14T09:16:08;70760.38;;;-142.70;45.92
6224;BME280;3145;42.726;23.342;2023-06-14T09:18:36;70738.25;;;-142.70;47.12
6224;BME280;3145;42.726;23.342;2023-06-14T09:21:04;70752.34;;;-142.70;47.34
6224;BME280;3145;42.726;23.342;2023-06-14T09:23:33;70784.56;;;-142.70;47.19
6224;BME280;3145;42.726;23.342;2023-06-14T09:26:08;70780.53;;;-142.70;47.98
6224;BME280;3145;42.726;23.342;2023-06-14T09:28:35;70772.47;;;-142.70;46.87
6224;BME280;3145;42.726;23.342;2023-06-14T09:31:02;70756.34;;;-142.70;47.63
6224;BME280;3145;42.726;23.342;2023-06-14T09:33:28;70736.22;;;-142.70;47.09
6224;BME280;3145;42.726;23.342;2023-06-14T09:35:57;70712.06;;;-142.70;47.61
6224;BME280;3145;42.726;23.342;2023-06-14T09:38:24;70764.41;;;-142.70;44.82
6224;BME280;3145;42.726;23.342;2023-06-14T09:40:51;70758.38;;;-142.70;45.69
6224;BME280;3145;42.726;23.342;2023-06-14T09:43:19;70808.72;;;-142.70;45.27
6224;BME280;3145;42.726;23.342;2023-06-14T09:45:47;70822.81;;;-142.70;45.83
6224;BME280;3145;42.726;23.342;2023-06-14T09:48:15;70853.00;;;-142.70;45.98
6224;BME280;3145;42.726;23.342;2023-06-14T09:50:45;70836.91;;;-142.70;47.51
6224;BME280;3145;42.726;23.342;2023-06-14T09:53:13;70824.81;;;-142.70;45.46
6224;BME280;3145;42.726;23.342;2023-06-14T09:55:41;70806.69;;;-142.70;46.20
6224;BME280;3145;42.726;23.342;2023-06-14T09:58:09;70774.47;;;-142.70;47.60
6224;BME280;3145;42.726;23.342;2023-06-14T10:00:39;70742.25;;;-142.70;45.38
6224;BME280;3145;42.726;23.342;2023-06-14T10:03:12;70683.88;;;-142.70;43.87
6224;BME280;3145;42.726;23.342;2023-06-14T10:05:42;70605.34;;;-142.70;45.78
6224;BME280;3145;42.726;23.342;2023-06-14T10:08:14;70559.03;;;-142.70;44.21
6224;BME280;3145;42.726;23.342;2023-06-14T10:10:42;70559.03;;;-142.70;44.09
6224;BME280;3145;42.726;23.342;2023-06-14T10:13:09;70587.22;;;-142.70;42.53
6224;BME280;3145;42.726;23.342;2023-06-14T10:15:44;70637.56;;;-142.70;42.83
6224;BME280;3145;42.726;23.342;2023-06-14T10:18:18;70657.69;;;-142.70;42.41
6224;BME280;3145;42.726;23.342;2023-06-14T10:20:55;70635.56;;;-142.70;42.79
6224;BME280;3145;42.726;23.342;2023-06-14T10:23:23;70621.47;;;-142.70;42.06
6224;BME280;3145;42.726;23.342;2023-06-14T10:25:54;70663.75;;;-142.70;42.69
6224;BME280;3145;42.726;23.342;2023-06-14T10:28:22;70687.91;;;-142.70;44.46
6224;BME280;3145;42.726;23.342;2023-06-14T10:31:03;70607.38;;;-142.70;41.94
6224;BME280;3145;42.726;23.342;2023-06-14T10:33:30;70573.13;;;-142.70;41.07
6224;BME280;3145;42.726;23.342;2023-06-14T10:36:24;70542.94;;;-142.70;41.58
6224;BME280;3145;42.726;23.342;2023-06-14T10:39:05;70474.50;;;-142.70;42.78
6224;BME280;3145;42.726;23.342;2023-06-14T10:41:35;70551.00;;;-142.70;41.04
6224;BME280;3145;42.726;23.342;2023-06-14T10:44:31;70514.75;;;-142.70;42.28
6224;BME280;3145;42.726;23.342;2023-06-14T10:47:00;70486.56;;;-142.70;41.55
6224;BME280;3145;42.726;23.342;2023-06-14T10:49:41;70486.56;;;-142.70;42.10
6224;BME280;3145;42.726;23.342;2023-06-14T10:52:09;70490.59;;;-142.70;41.88
6224;BME280;3145;42.726;23.342;2023-06-14T10:55:04;70587.22;;;-142.70;41.10
6224;BME280;3145;42.726;23.342;2023-06-14T10:57:32;70647.63;;;-142.70;42.67
6224;BME280;3145;42.726;23.342;2023-06-14T10:59:59;70653.69;;;-142.70;43.81
6224;BME280;3145;42.726;23.342;2023-06-14T11:03:04;70615.41;;;-142.70;43.67
6224;BME280;3145;42.726;23.342;2023-06-14T11:05:45;70609.38;;;-142.70;42.10
6224;BME280;3145;42.726;23.342;2023-06-14T11:08:29;70589.25;;;-142.70;42.81
6224;BME280;3145;42.726;23.342;2023-06-14T11:11:00;70571.13;;;-142.70;42.60
6224;BME280;3145;42.726;23.342;2023-06-14T11:13:32;70569.13;;;-142.70;41.79
6224;BME280;3145;42.726;23.342;2023-06-14T11:15:59;70518.78;;;-142.70;42.04
6224;BME280;3145;42.726;23.342;2023-06-14T11:18:28;70520.78;;;-142.70;41.88
6224;BME280;3145;42.726;23.342;2023-06-14T11:20:55;70561.06;;;-142.70;42.61
6224;BME280;3145;42.726;23.342;2023-06-14T11:23:22;70571.13;;;-142.70;43.25
6224;BME280;3145;42.726;23.342;2023-06-14T11:25:52;70585.22;;;-142.70;42.25
6224;BME280;3145;42.726;23.342;2023-06-14T11:28:19;70589.25;;;-142.70;41.54
6224;BME280;3145;42.726;23.342;2023-06-14T11:30:48;70597.31;;;-142.70;41.66
6224;BME280;3145;42.726;23.342;2023-06-14T11:33:17;70603.34;;;-142.70;42.03
6224;BME280;3145;42.726;23.342;2023-06-14T11:35:46;70599.31;;;-142.70;41.84
6224;BME280;3145;42.726;23.342;2023-06-14T11:38:13;70571.13;;;-142.70;41.80
6224;BME280;3145;42.726;23.342;2023-06-14T11:40:40;70526.84;;;-142.70;42.28
6224;BME280;3145;42.726;23.342;2023-06-14T11:43:07;70524.81;;;-142.70;40.11
6224;BME280;3145;42.726;23.342;2023-06-14T11:45:33;70490.59;;;-142.70;40.97
6224;BME280;3145;42.726;23.342;2023-06-14T11:48:00;70430.19;;;-142.70;40.43
6224;BME280;3145;42.726;23.342;2023-06-14T11:50:27;70397.97;;;-142.70;38.50
6224;BME280;3145;42.726;23.342;2023-06-14T11:52:56;70397.97;;;-142.70;39.84
6224;BME280;3145;42.726;23.342;2023-06-14T11:55:25;70402.00;;;-142.70;39.56
6224;BME280;3145;42.726;23.342;2023-06-14T11:57:53;70450.31;;;-142.70;40.34
6224;BME280;3145;42.726;23.342;2023-06-14T12:00:24;70474.50;;;-142.70;38.91
6224;BME280;3145;42.726;23.342;2023-06-14T12:02:54;70454.34;;;-142.70;40.29
6224;BME280;3145;42.726;23.342;2023-06-14T12:05:22;70430.19;;;-142.70;39.49
6224;BME280;3145;42.726;23.342;2023-06-14T12:07:50;70373.81;;;-142.70;39.96
6224;BME280;3145;42.726;23.342;2023-06-14T12:10:20;70454.34;;;-142.70;39.19
6224;BME280;3145;42.726;23.342;2023-06-14T12:12:47;70450.31;;;-142.70;40.16
6224;BME280;3145;42.726;23.342;2023-06-14T12:15:13;70424.16;;;-142.70;40.72
6224;BME280;3145;42.726;23.342;2023-06-14T12:17:42;70416.09;;;-142.70;39.91
6224;BME280;3145;42.726;23.342;2023-06-14T12:20:10;70373.81;;;-142.70;38.78
6224;BME280;3145;42.726;23.342;2023-06-14T12:22:39;70389.94;;;-142.70;38.65
6224;BME280;3145;42.726;23.342;2023-06-14T12:25:06;70422.13;;;-142.70;38.03
6224;BME280;3145;42.726;23.342;2023-06-14T12:27:39;70428.19;;;-142.70;40.23
6224;BME280;3145;42.726;23.342;2023-06-14T12:30:07;70454.34;;;-142.70;38.84
6224;BME280;3145;42.726;23.342;2023-06-14T12:32:34;70432.22;;;-142.70;39.62
6224;BME280;3145;42.726;23.342;2023-06-14T12:35:01;70418.13;;;-142.70;39.60
6224;BME280;3145;42.726;23.342;2023-06-14T12:37:28;70412.06;;;-142.70;38.58
6224;BME280;3145;42.726;23.342;2023-06-14T12:39:55;70426.16;;;-142.70;38.52
6224;BME280;3145;42.726;23.342;2023-06-14T12:42:21;70414.09;;;-142.70;39.21
6224;BME280;3145;42.726;23.342;2023-06-14T12:44:49;70456.38;;;-142.70;39.67
6224;BME280;3145;42.726;23.342;2023-06-14T12:47:16;70510.72;;;-142.70;39.37
6224;BME280;3145;42.726;23.342;2023-06-14T12:49:43;70563.06;;;-142.70;39.98
6224;BME280;3145;42.726;23.342;2023-06-14T12:52:09;70524.81;;;-142.70;40.00
6224;BME280;3145;42.726;23.342;2023-06-14T12:54:36;70490.59;;;-142.70;38.86
6224;BME280;3145;42.726;23.342;2023-06-14T12:57:05;70452.34;;;-142.70;38.68